KLM897 EHAM-ZBAA
Flight info
| Callsign | KLM897 |
|---|---|
| Flight time | N/A |
| Altitude | 35000 |
| Route | ARNEM L620 HMM DCT NOMKA DCT OMELO DCT PEPIK DCT BUDOP DCT LUGEB DCT UDROS UM859 KARDE UN644 FALAZ/N0487F370 UN644 ROLIN N644 ODILI DCT BARAD M747 SUBUT T916 BALUN/K0911F370 T916 PIGAL M610 RULAD/K0911S1130 A343 NLT/K0913S1190 A343 POSOT B215 FKG W188 LIKMI W270 DKO W69 GUVBA GUVBA4E |
| Aircraft | B789/H-SDE1E2E3FGHIJ2J3J4J5M1RWXY/LB1D1 |
Departure
| Time | 2026-04-30 20:40 |
|---|---|
| Airport | Amsterdam Airport Schiphol (EHAM) |
Arrival
| Time | N/A |
|---|---|
| Airport | Beijing Capital International Airport (ZBAA) |
| Time | Latitude | Longitude | Altitude | Speed | Heading |
|---|---|---|---|---|---|
| 2026-04-30 20:07 | 52.31368 | 4.76289 | 3 ft | 0 kts | 204° |
| 2026-04-30 20:30 | 52.31385 | 4.76301 | 3 ft | 2 kts | 204° |
| 2026-04-30 20:30 | 52.31430 | 4.76333 | 3 ft | 2 kts | 205° |
| 2026-04-30 20:31 | 52.31461 | 4.76383 | 6 ft | 1 kts | 257° |
| 2026-04-30 20:32 | 52.31461 | 4.76384 | 6 ft | 0 kts | 259° |
| 2026-04-30 20:33 | 52.31459 | 4.76345 | 4 ft | 6 kts | 266° |
| 2026-04-30 20:33 | 52.31456 | 4.76240 | 3 ft | 12 kts | 267° |
| 2026-04-30 20:34 | 52.31454 | 4.75971 | 3 ft | 11 kts | 291° |
| 2026-04-30 20:34 | 52.31521 | 4.75858 | 3 ft | 7 kts | 283° |
| 2026-04-30 20:35 | 52.31523 | 4.75747 | 3 ft | 11 kts | 266° |
| 2026-04-30 20:35 | 52.31518 | 4.75625 | 3 ft | 11 kts | 266° |
| 2026-04-30 20:35 | 52.31510 | 4.75396 | 2 ft | 10 kts | 267° |
| 2026-04-30 20:36 | 52.31506 | 4.75268 | 2 ft | 12 kts | 266° |
| 2026-04-30 20:36 | 52.31501 | 4.75117 | 2 ft | 14 kts | 266° |
| 2026-04-30 20:36 | 52.31489 | 4.74778 | 3 ft | 15 kts | 266° |
| 2026-04-30 20:37 | 52.31535 | 4.74667 | 3 ft | 11 kts | 340° |
| 2026-04-30 20:37 | 52.31561 | 4.74661 | 3 ft | 0 kts | 355° |
| 2026-04-30 20:37 | 52.31566 | 4.74660 | 3 ft | 2 kts | 355° |
| 2026-04-30 20:38 | 52.31578 | 4.74659 | 4 ft | 4 kts | 358° |
| 2026-04-30 20:38 | 52.31646 | 4.74668 | 5 ft | 11 kts | 22° |
| 2026-04-30 20:38 | 52.31670 | 4.74736 | 5 ft | 4 kts | 90° |
| 2026-04-30 20:39 | 52.31670 | 4.74742 | 5 ft | 0 kts | 90° |
| 2026-04-30 20:39 | 52.31670 | 4.74777 | 4 ft | 19 kts | 89° |
| 2026-04-30 20:39 | 52.31690 | 4.75380 | -1 ft | 86 kts | 86° |
| 2026-04-30 20:40 | 52.31798 | 4.78566 | 46 ft | 186 kts | 84° |
| 2026-04-30 20:40 | 52.31893 | 4.80685 | 524 ft | 190 kts | 88° |
| 2026-04-30 20:40 | 52.31934 | 4.82771 | 1488 ft | 175 kts | 91° |
| 2026-04-30 20:41 | 52.31970 | 4.87001 | 2549 ft | 207 kts | 108° |
| 2026-04-30 20:41 | 52.31360 | 4.89291 | 2804 ft | 232 kts | 116° |
| 2026-04-30 20:41 | 52.30718 | 4.91782 | 3609 ft | 237 kts | 115° |
| 2026-04-30 20:41 | 52.30069 | 4.94291 | 4466 ft | 242 kts | 115° |
| 2026-04-30 20:42 | 52.29435 | 4.96852 | 5376 ft | 246 kts | 108° |
| 2026-04-30 20:42 | 52.28998 | 4.99577 | 6214 ft | 249 kts | 108° |
| 2026-04-30 20:42 | 52.28016 | 5.05088 | 7828 ft | 257 kts | 108° |
| 2026-04-30 20:43 | 52.27523 | 5.07923 | 8605 ft | 261 kts | 107° |
| 2026-04-30 20:43 | 52.27022 | 5.10807 | 9378 ft | 266 kts | 107° |
| 2026-04-30 20:43 | 52.26511 | 5.13733 | 10147 ft | 271 kts | 107° |
| 2026-04-30 20:44 | 52.25409 | 5.20010 | 10725 ft | 313 kts | 107° |
| 2026-04-30 20:44 | 52.24784 | 5.23568 | 10828 ft | 339 kts | 107° |
| 2026-04-30 20:44 | 52.24233 | 5.31414 | 11955 ft | 355 kts | 97° |
| 2026-04-30 20:45 | 52.23678 | 5.39540 | 13422 ft | 363 kts | 96° |
| 2026-04-30 20:45 | 52.23504 | 5.43615 | 14132 ft | 367 kts | 95° |
| 2026-04-30 20:45 | 52.23317 | 5.47790 | 14780 ft | 370 kts | 96° |
| 2026-04-30 20:46 | 52.21334 | 5.60007 | 16611 ft | 378 kts | 112° |
| 2026-04-30 20:46 | 52.20347 | 5.64004 | 17222 ft | 381 kts | 112° |
| 2026-04-30 20:47 | 52.18380 | 5.72082 | 18433 ft | 388 kts | 112° |
| 2026-04-30 20:47 | 52.17376 | 5.76222 | 18964 ft | 392 kts | 112° |
| 2026-04-30 20:48 | 52.15337 | 5.84542 | 19933 ft | 399 kts | 112° |
| 2026-04-30 20:48 | 52.14303 | 5.88763 | 20405 ft | 402 kts | 112° |
| 2026-04-30 20:48 | 52.13272 | 5.92963 | 20866 ft | 406 kts | 112° |
| 2026-04-30 20:48 | 52.12217 | 5.97248 | 21313 ft | 409 kts | 112° |